Terminal Aerodrome Forecast
Issued by NWS Tulsa, OK

Home | Current Version | Previous Version | Text Only | Print | Product List | Glossary Off
Versions: 1 2 3 4 5 6 7 8 9 10 11 12 13 14 15 16 17 18 19 20

000
FTUS44 KTSA 261100
TAFFSM
TAF
KFSM 261139Z 2612/2712 08008KT P6SM FEW150
     FM261700 08010KT P6SM SCT025
     FM262000 08012KT P6SM BKN035
     FM270000 10012KT P6SM OVC035 PROB30 2703/2706 -TSRA BKN025CB
     FM270600 08014KT P6SM VCTS BKN035CB PROB30 2706/2712 -TSRA
      BKN025CB=

USA.gov is the U.S. government's official web portal to all federal, state and local government web resources and services.